Time;durP1;ratioP1;P1;durP2;ratioP2;P2;SDS_P1;SDS_P2;PMS_P1;PMS_P2;Temp;Humidity;BMP_temperature;BMP_pressure;BME280_temperature;BME280_humidity;BME280_pressure;Samples;Min_cycle;Max_cycle;Signal;HPM_P1;HPM_P2
2023/11/03 12:17:03;;;;;;;2.50;0.63;;;;;;;12.29;78.75;98182.81;4930709;29;20592;-70
2023/11/03 12:19:31;;;;;;;2.53;0.73;;;;;;;12.33;78.00;98169.28;4936290;29;20547;-67
2023/11/03 12:21:58;;;;;;;1.90;0.50;;;;;;;12.37;77.70;98181.75;4935962;29;20487;-69
2023/11/03 12:24:25;;;;;;;1.90;0.50;;;;;;;12.46;77.32;98175.25;4936231;29;20467;-69
2023/11/03 12:26:53;;;;;;;2.57;0.57;;;;;;;12.67;76.63;98171.97;4935828;29;20955;-69
2023/11/03 12:29:28;;;;;;;2.00;0.50;;;;;;;12.99;75.30;98175.72;4950592;23;20909;-68
2023/11/03 12:31:56;;;;;;;2.00;0.53;;;;;;;13.37;75.00;98171.78;4936364;29;20933;-68
2023/11/03 12:34:25;;;;;;;7.30;0.77;;;;;;;13.61;72.86;98170.34;4936255;29;20467;-68
2023/11/03 12:36:51;;;;;;;3.60;0.60;;;;;;;13.86;71.76;98170.47;4935754;29;20452;-68
2023/11/03 12:39:19;;;;;;;3.10;1.10;;;;;;;14.32;68.93;98164.41;4935972;29;20459;-68
2023/11/03 12:41:59;;;;;;;1.90;0.50;;;;;;;14.96;66.95;98176.56;4935857;29;20526;-68
2023/11/03 12:44:26;;;;;;;2.03;0.50;;;;;;;15.81;63.25;98184.66;4935836;29;20499;-70
2023/11/03 12:46:54;;;;;;;1.90;0.40;;;;;;;16.48;61.35;98176.56;4935520;29;20953;-70
2023/11/03 12:49:21;;;;;;;2.40;0.80;;;;;;;17.10;60.03;98183.97;4935854;29;20451;-70
2023/11/03 12:51:53;;;;;;;2.10;0.50;;;;;;;17.43;56.55;98195.38;4935773;29;20443;-71
2023/11/03 12:54:21;;;;;;;3.30;0.73;;;;;;;17.38;56.16;98196.59;4935770;29;20507;-70
2023/11/03 12:56:50;;;;;;;1.93;0.57;;;;;;;17.03;54.19;98194.94;4935946;29;20479;-68
2023/11/03 12:59:18;;;;;;;2.40;0.60;;;;;;;16.81;57.43;98197.84;4935444;29;21016;-68
2023/11/03 13:01:44;;;;;;;1.90;0.50;;;;;;;16.93;55.90;98193.84;4935656;29;20883;-68
2023/11/03 13:04:13;;;;;;;2.00;0.60;;;;;;;16.92;58.03;98186.06;4935372;29;20984;-70
2023/11/03 13:06:40;;;;;;;2.50;0.67;;;;;;;16.78;55.35;98182.25;4935712;29;20482;-68
2023/11/03 13:09:13;;;;;;;2.20;0.47;;;;;;;16.47;56.23;98186.72;4936803;29;20467;-69
2023/11/03 13:11:41;;;;;;;2.00;0.70;;;;;;;16.16;58.54;98185.72;4939312;29;20432;-68
2023/11/03 13:14:08;;;;;;;3.40;0.77;;;;;;;15.98;60.54;98179.53;4939708;29;20510;-69
2023/11/03 13:16:35;;;;;;;2.17;0.50;;;;;;;15.53;58.68;98182.75;4938755;29;20439;-69
2023/11/03 13:19:01;;;;;;;2.20;0.63;;;;;;;15.10;61.16;98176.59;4938864;29;20455;-68
2023/11/03 13:21:29;;;;;;;2.63;0.67;;;;;;;14.76;61.54;98171.50;4939192;29;20587;-69
2023/11/03 13:23:57;;;;;;;2.60;0.60;;;;;;;14.60;64.37;98173.81;4938544;29;20476;-66
2023/11/03 13:26:25;;;;;;;1.80;0.50;;;;;;;14.50;65.19;98169.13;4938520;29;20444;-66
2023/11/03 13:28:51;;;;;;;2.80;0.80;;;;;;;14.31;67.32;98168.28;4938664;29;20490;-66
2023/11/03 13:31:18;;;;;;;2.30;0.53;;;;;;;14.19;65.91;98160.47;4938429;29;20444;-66
2023/11/03 13:33:44;;;;;;;1.83;0.47;;;;;;;14.06;65.93;98151.88;4938375;29;21012;-66
2023/11/03 13:36:13;;;;;;;1.90;0.60;;;;;;;13.94;65.67;98149.50;4939044;29;20482;-66
2023/11/03 13:38:40;;;;;;;2.00;0.50;;;;;;;13.86;67.53;98159.59;4938625;29;20487;-66
2023/11/03 13:41:07;;;;;;;2.00;0.50;;;;;;;13.84;67.25;98170.06;4939027;29;20487;-66
2023/11/03 13:43:38;;;;;;;1.90;0.47;;;;;;;13.67;68.91;98165.31;4939049;29;20470;-66
2023/11/03 13:46:07;;;;;;;1.73;0.40;;;;;;;13.59;68.86;98166.44;4938746;29;20470;-67
2023/11/03 13:48:33;;;;;;;1.77;0.37;;;;;;;13.56;69.30;98159.81;4938397;29;20440;-66
2023/11/03 13:51:01;;;;;;;2.20;0.60;;;;;;;13.45;69.73;98158.19;4938255;29;20448;-66
2023/11/03 13:53:28;;;;;;;1.93;0.57;;;;;;;13.44;69.70;98159.38;4938419;29;20460;-66
2023/11/03 13:55:56;;;;;;;1.90;0.60;;;;;;;13.42;68.98;98164.41;4938279;29;20455;-66
2023/11/03 13:58:22;;;;;;;2.10;0.50;;;;;;;13.33;70.49;98164.75;4938137;29;20440;-67
2023/11/03 14:00:50;;;;;;;3.17;0.60;;;;;;;13.36;71.65;98163.97;4938498;29;20499;-67
2023/11/03 14:03:17;;;;;;;3.40;0.60;;;;;;;13.29;71.01;98175.59;4938126;29;20469;-66
2023/11/03 14:05:44;;;;;;;2.10;0.47;;;;;;;13.29;72.26;98174.81;4938145;29;20526;-66
2023/11/03 14:08:10;;;;;;;1.90;0.50;;;;;;;13.30;72.82;98177.16;4938072;29;20443;-66
2023/11/03 14:10:37;;;;;;;3.03;0.70;;;;;;;13.20;73.54;98177.84;4938097;29;20494;-67
2023/11/03 14:13:04;;;;;;;3.00;0.80;;;;;;;13.19;73.09;98175.47;4937950;29;20444;-66
2023/11/03 14:15:30;;;;;;;2.07;0.50;;;;;;;13.10;75.09;98190.19;4937950;29;20443;-67
2023/11/03 14:17:59;;;;;;;2.17;0.60;;;;;;;13.04;74.28;98188.97;4937931;29;20444;-66
2023/11/03 14:20:26;;;;;;;2.00;0.50;;;;;;;12.95;73.82;98196.66;4938143;29;20530;-66
2023/11/03 14:22:53;;;;;;;2.00;0.50;;;;;;;12.94;73.50;98202.47;4937837;29;20488;-66
2023/11/03 14:25:19;;;;;;;1.77;0.30;;;;;;;12.86;73.58;98196.97;4937748;29;20787;-66
2023/11/03 14:27:46;;;;;;;2.63;0.50;;;;;;;12.81;75.82;98194.59;4937600;29;20443;-67
2023/11/03 14:30:13;;;;;;;2.30;0.60;;;;;;;12.76;76.79;98189.50;4937453;29;20479;-67
2023/11/03 14:32:40;;;;;;;2.20;0.57;;;;;;;12.72;76.46;98190.63;4937620;29;20466;-67
2023/11/03 14:35:10;;;;;;;2.20;0.50;;;;;;;12.68;75.97;98197.97;4937635;29;20499;-67
2023/11/03 14:37:37;;;;;;;1.80;0.50;;;;;;;12.67;78.79;98210.00;4937704;29;20935;-67
2023/11/03 14:40:06;;;;;;;1.80;0.43;;;;;;;12.62;81.07;98205.69;4937447;29;20449;-67
2023/11/03 14:42:34;;;;;;;2.77;0.67;;;;;;;12.59;80.94;98198.25;4937465;29;20491;-67
2023/11/03 14:45:01;;;;;;;2.57;0.47;;;;;;;12.61;81.17;98195.94;4937961;29;20474;-67
2023/11/03 14:47:29;;;;;;;2.40;0.73;;;;;;;12.55;82.33;98189.31;4937583;29;20518;-67
2023/11/03 14:49:56;;;;;;;2.50;0.60;;;;;;;12.55;83.89;98194.72;4937724;29;20460;-67
2023/11/03 14:52:24;;;;;;;2.93;0.53;;;;;;;12.47;84.06;98179.53;4937396;29;20522;-67
2023/11/03 14:54:51;;;;;;;1.70;0.40;;;;;;;12.43;85.19;98179.47;4937181;29;20995;-67
2023/11/03 14:57:18;;;;;;;1.80;0.50;;;;;;;12.40;85.86;98179.47;4937137;29;20451;-67
2023/11/03 14:59:44;;;;;;;2.90;0.50;;;;;;;12.33;87.27;98169.28;4937097;29;20498;-67
2023/11/03 15:02:11;;;;;;;2.00;0.50;;;;;;;12.28;87.79;98170.41;4937041;29;20491;-67
2023/11/03 15:04:38;;;;;;;1.80;0.40;;;;;;;12.28;88.17;98167.69;4936744;29;20562;-67
2023/11/03 15:07:04;;;;;;;2.53;0.73;;;;;;;12.24;88.39;98169.59;4936925;29;20536;-67
2023/11/03 15:09:33;;;;;;;2.77;0.53;;;;;;;12.17;88.85;98166.78;4937341;29;20483;-67
2023/11/03 15:12:00;;;;;;;2.17;0.60;;;;;;;12.11;88.16;98165.56;4937082;29;20471;-67
2023/11/03 15:14:27;;;;;;;1.90;0.50;;;;;;;12.05;88.36;98165.13;4936761;29;20468;-67
2023/11/03 15:16:54;;;;;;;2.23;0.50;;;;;;;12.02;88.56;98168.56;4936986;29;20452;-67
2023/11/03 15:19:21;;;;;;;1.97;0.50;;;;;;;12.00;89.20;98178.25;4936349;29;20542;-67
2023/11/03 15:21:48;;;;;;;2.00;0.47;;;;;;;11.94;89.53;98180.47;4936200;29;20523;-67
2023/11/03 15:24:15;;;;;;;2.23;0.70;;;;;;;11.86;89.31;98190.47;4936583;29;20472;-67
2023/11/03 15:26:43;;;;;;;2.40;0.67;;;;;;;11.82;89.52;98196.94;4936459;29;20447;-67
2023/11/03 15:29:10;;;;;;;2.30;0.70;;;;;;;11.77;89.88;98200.00;4936255;29;20464;-69
2023/11/03 15:31:38;;;;;;;2.00;0.67;;;;;;;11.77;91.59;98205.41;4935821;29;20528;-72
2023/11/03 15:34:06;;;;;;;2.13;0.60;;;;;;;11.74;92.58;98208.88;4936282;29;20978;-67
2023/11/03 15:36:33;;;;;;;2.37;0.80;;;;;;;11.68;94.04;98208.41;4937051;29;20956;-67
2023/11/03 15:39:06;;;;;;;1.80;0.40;;;;;;;11.68;94.98;98216.53;4936349;29;20451;-67
2023/11/03 15:41:32;;;;;;;1.93;0.57;;;;;;;11.70;95.55;98211.53;4936075;29;20427;-66
2023/11/03 15:44:01;;;;;;;2.20;0.60;;;;;;;11.69;96.16;98212.69;4936241;29;20981;-66
2023/11/03 15:46:29;;;;;;;4.80;1.40;;;;;;;11.65;97.00;98211.09;4936472;29;20454;-66
2023/11/03 15:48:56;;;;;;;2.77;0.80;;;;;;;11.64;97.32;98215.69;4936702;29;20937;-67
2023/11/03 15:51:23;;;;;;;2.53;0.90;;;;;;;11.60;97.27;98214.91;4936369;29;20443;-69
2023/11/03 15:53:53;;;;;;;3.07;1.00;;;;;;;11.54;97.71;98202.78;4936473;29;20534;-68
2023/11/03 15:56:19;;;;;;;2.50;0.90;;;;;;;11.57;97.64;98210.19;4936559;29;20451;-70
2023/11/03 15:58:46;;;;;;;3.13;1.10;;;;;;;11.60;97.52;98206.75;4936194;29;21003;-69
2023/11/03 16:01:14;;;;;;;2.23;0.60;;;;;;;11.57;98.08;98204.78;4936250;29;20447;-68
2023/11/03 16:03:41;;;;;;;3.27;1.10;;;;;;;11.50;99.08;98201.94;4935812;29;20547;-68
2023/11/03 16:08:14;;;;;;;2.83;0.60;;;;;;;11.50;99.21;98200.00;5110195;27;20554;-68
2023/11/03 16:10:43;;;;;;;2.20;0.70;;;;;;;11.50;99.55;98193.81;5111091;28;20471;-68
2023/11/03 16:13:10;;;;;;;2.30;0.80;;;;;;;11.49;99.25;98203.09;5110937;28;20467;-69
2023/11/03 16:15:39;;;;;;;2.77;0.83;;;;;;;11.49;99.36;98197.69;5110559;28;20440;-70
2023/11/03 16:18:07;;;;;;;2.43;0.93;;;;;;;11.41;100.00;98194.06;5110308;28;20509;-68
2023/11/03 16:20:35;;;;;;;5.13;1.10;;;;;;;11.38;100.00;98197.53;5111003;28;20526;-69
2023/11/03 16:23:01;;;;;;;3.20;0.90;;;;;;;11.33;100.00;98204.06;5110225;28;20467;-69
2023/11/03 16:25:29;;;;;;;2.83;1.13;;;;;;;11.36;100.00;98189.75;5110058;28;20467;-69
2023/11/03 16:27:57;;;;;;;8.50;3.57;;;;;;;11.34;100.00;98192.06;5110521;28;20479;-69
2023/11/03 16:30:23;;;;;;;6.50;3.27;;;;;;;11.30;100.00;98185.03;5110235;28;20454;-69
2023/11/03 16:32:51;;;;;;;6.93;2.70;;;;;;;11.36;100.00;98187.03;5110102;28;20530;-69
2023/11/03 16:35:17;;;;;;;4.70;2.13;;;;;;;11.36;100.00;98187.03;5110607;28;20439;-69
2023/11/03 16:37:44;;;;;;;6.17;2.83;;;;;;;11.35;100.00;98187.41;5110271;28;20519;-69
2023/11/03 16:40:12;;;;;;;3.77;2.10;;;;;;;11.30;100.00;98177.66;5110179;28;20514;-68
2023/11/03 16:42:41;;;;;;;7.60;2.33;;;;;;;11.29;100.00;98181.53;5110325;28;20518;-68
2023/11/03 16:45:10;;;;;;;4.30;1.73;;;;;;;11.28;100.00;98185.38;5110322;28;20514;-68
2023/11/03 16:47:37;;;;;;;4.53;2.10;;;;;;;11.28;100.00;98188.06;5110065;28;20479;-69
2023/11/03 16:50:06;;;;;;;3.23;1.57;;;;;;;11.27;100.00;98191.94;5109734;28;20450;-69
2023/11/03 16:52:36;;;;;;;3.30;1.37;;;;;;;11.31;100.00;98202.84;5109962;28;20463;-69
2023/11/03 16:55:03;;;;;;;4.83;1.70;;;;;;;11.32;100.00;98197.03;5110007;28;20516;-69
2023/11/03 16:57:30;;;;;;;3.60;1.63;;;;;;;11.27;100.00;98202.78;5109966;28;20431;-69
2023/11/03 16:59:59;;;;;;;3.03;1.43;;;;;;;11.29;100.00;98211.34;5110195;28;20431;-69
2023/11/03 17:02:26;;;;;;;2.50;0.97;;;;;;;11.27;100.00;98199.28;5109937;28;20542;-69
2023/11/03 17:04:53;;;;;;;3.93;1.27;;;;;;;11.23;100.00;98201.94;5109524;28;20543;-70
2023/11/03 17:07:19;;;;;;;2.57;1.17;;;;;;;11.21;100.00;98198.06;5109568;28;20575;-69
2023/11/03 17:09:46;;;;;;;2.53;0.90;;;;;;;11.15;100.00;98196.78;5109885;28;20467;-69
2023/11/03 17:12:15;;;;;;;8.10;1.33;;;;;;;11.14;100.00;98200.63;5109890;28;20514;-69
2023/11/03 17:14:43;;;;;;;3.80;1.27;;;;;;;11.14;100.00;98198.69;5109924;28;20463;-69
2023/11/03 17:17:12;;;;;;;2.93;0.93;;;;;;;11.07;100.00;98204.81;5109833;28;20478;-69
2023/11/03 17:19:39;;;;;;;3.73;1.40;;;;;;;11.09;100.00;98201.72;5095193;28;20757;-69
2023/11/03 17:22:07;;;;;;;2.30;0.90;;;;;;;11.08;100.00;98205.59;5095979;28;20466;-71
2023/11/03 17:24:34;;;;;;;2.40;0.83;;;;;;;11.09;100.00;98205.22;5095861;28;20464;-69
2023/11/03 17:27:00;;;;;;;3.77;1.13;;;;;;;11.12;100.00;98211.84;5096139;28;20510;-69
2023/11/03 17:29:28;;;;;;;2.87;0.97;;;;;;;11.15;100.00;98216.53;5096407;28;20523;-69
2023/11/03 17:31:55;;;;;;;3.57;1.30;;;;;;;11.12;100.00;98217.25;5095475;28;20844;-69
2023/11/03 17:34:23;;;;;;;2.93;0.97;;;;;;;11.05;100.00;98222.56;5095949;28;20815;-69
2023/11/03 17:36:50;;;;;;;3.67;1.60;;;;;;;11.03;100.00;98230.28;5095374;28;20436;-69
2023/11/03 17:39:17;;;;;;;3.47;1.00;;;;;;;10.95;100.00;98231.28;5095628;28;20448;-69
2023/11/03 17:41:44;;;;;;;2.50;0.87;;;;;;;10.99;100.00;98232.16;5095932;28;20447;-69
2023/11/03 17:44:12;;;;;;;3.03;1.60;;;;;;;10.99;100.00;98229.44;5095630;28;20605;-69
2023/11/03 17:46:39;;;;;;;4.70;1.60;;;;;;;10.98;100.00;98247.63;5095801;28;20571;-69
2023/11/03 17:49:05;;;;;;;2.20;0.77;;;;;;;10.94;100.00;98246.78;5095608;28;20520;-69
2023/11/03 17:51:33;;;;;;;3.73;1.30;;;;;;;10.92;100.00;98248.25;5095351;28;20447;-68
2023/11/03 17:54:00;;;;;;;2.27;0.80;;;;;;;10.93;100.00;98260.66;5095013;28;20522;-68
2023/11/03 17:56:27;;;;;;;6.03;1.63;;;;;;;10.94;100.00;98256.81;5095562;28;20526;-68
2023/11/03 17:58:53;;;;;;;4.03;1.50;;;;;;;10.93;100.00;98266.06;5095043;28;20864;-68
2023/11/03 18:01:20;;;;;;;4.10;1.17;;;;;;;10.95;99.81;98261.09;5095050;28;20474;-68
2023/11/03 18:03:47;;;;;;;4.40;1.30;;;;;;;11.00;99.94;98260.78;5095126;28;20475;-68
2023/11/03 18:06:14;;;;;;;4.40;1.17;;;;;;;10.99;100.00;98256.53;5095052;28;20491;-68
2023/11/03 18:08:42;;;;;;;4.90;1.30;;;;;;;11.00;100.00;98256.16;5094906;28;20468;-68
2023/11/03 18:11:08;;;;;;;4.27;0.90;;;;;;;11.03;100.00;98260.06;5095281;28;20528;-68
2023/11/03 18:13:35;;;;;;;3.23;1.33;;;;;;;11.07;100.00;98255.50;5095271;28;20812;-70
2023/11/03 18:16:03;;;;;;;2.97;1.07;;;;;;;11.09;100.00;98256.69;5095643;28;20440;-70
2023/11/03 18:18:29;;;;;;;2.63;1.00;;;;;;;11.10;100.00;98262.88;5095881;28;20437;-70
2023/11/03 18:20:56;;;;;;;2.60;0.90;;;;;;;11.11;100.00;98276.09;5095299;28;20472;-70
2023/11/03 18:23:23;;;;;;;3.13;1.10;;;;;;;11.12;100.00;98282.28;5095388;28;20464;-70
2023/11/03 18:25:51;;;;;;;4.87;1.50;;;;;;;11.11;100.00;98273.38;5095808;28;20472;-70
2023/11/03 18:28:17;;;;;;;2.40;0.90;;;;;;;11.14;100.00;98290.81;5091361;22;20509;-67
2023/11/03 18:30:44;;;;;;;2.80;1.13;;;;;;;11.14;100.00;98301.66;5033865;28;20940;-67
2023/11/03 18:33:10;;;;;;;2.40;0.97;;;;;;;11.19;99.88;98301.34;5034792;28;20477;-69
2023/11/03 18:35:37;;;;;;;2.50;0.83;;;;;;;11.22;98.23;98306.06;5035251;28;20447;-70
2023/11/03 18:38:04;;;;;;;2.30;0.80;;;;;;;11.21;99.02;98311.84;5034905;28;20443;-70
2023/11/03 18:40:32;;;;;;;2.40;0.80;;;;;;;11.25;99.44;98299.94;5035256;28;20439;-70
2023/11/03 18:43:01;;;;;;;3.20;1.30;;;;;;;11.26;100.00;98304.19;5034875;28;20439;-70
2023/11/03 18:45:29;;;;;;;3.23;1.10;;;;;;;11.25;100.00;98299.94;5034797;28;20822;-70
2023/11/03 18:47:55;;;;;;;2.90;1.10;;;;;;;11.26;99.88;98309.63;5034733;28;20478;-70
2023/11/03 18:50:22;;;;;;;2.80;1.00;;;;;;;11.24;99.66;98303.75;5034604;28;20443;-70
2023/11/03 18:52:49;;;;;;;2.50;1.10;;;;;;;11.22;99.16;98308.78;5034567;28;20446;-70
2023/11/03 18:55:16;;;;;;;2.50;1.20;;;;;;;11.19;98.42;98309.50;5034584;28;20962;-69
2023/11/03 18:57:43;;;;;;;3.83;1.33;;;;;;;11.15;97.62;98305.16;5034398;28;20490;-70
2023/11/03 19:00:12;;;;;;;3.30;1.83;;;;;;;11.13;97.57;98302.03;5035107;28;20447;-69
2023/11/03 19:02:40;;;;;;;4.10;1.70;;;;;;;11.08;97.65;98303.91;5034511;28;20439;-70
2023/11/03 19:05:08;;;;;;;2.63;1.03;;;;;;;11.09;97.83;98313.59;5034367;28;20459;-70
2023/11/03 19:07:35;;;;;;;3.17;1.10;;;;;;;11.10;98.38;98303.53;5034632;28;20882;-70
2023/11/03 19:10:02;;;;;;;5.97;2.07;;;;;;;11.12;99.18;98303.97;5034018;28;20435;-69
2023/11/03 19:12:29;;;;;;;5.83;1.63;;;;;;;11.14;98.89;98303.59;5034017;28;20509;-69
2023/11/03 19:14:55;;;;;;;6.03;2.23;;;;;;;11.14;98.02;98304.38;5033847;28;20990;-71
2023/11/03 19:17:24;;;;;;;3.23;1.10;;;;;;;11.16;97.16;98301.31;5034223;28;20925;-68
2023/11/03 19:19:51;;;;;;;5.43;2.03;;;;;;;11.16;97.64;98296.69;5034589;28;20435;-69
2023/11/03 19:22:19;;;;;;;3.80;1.83;;;;;;;11.19;96.50;98304.06;5034064;28;20471;-70
2023/11/03 19:24:45;;;;;;;6.57;1.90;;;;;;;11.19;96.33;98316.84;5034034;28;20525;-71
2023/11/03 19:27:12;;;;;;;6.00;2.30;;;;;;;11.21;95.66;98318.06;5033858;28;20574;-69
2023/11/03 19:29:42;;;;;;;3.40;1.77;;;;;;;11.21;97.02;98318.06;5033742;28;20455;-69
2023/11/03 19:32:08;;;;;;;3.03;1.20;;;;;;;11.26;96.52;98314.25;5034236;28;20446;-70
2023/11/03 19:34:42;;;;;;;2.70;1.27;;;;;;;11.28;97.76;98320.09;5034321;28;20499;-70
2023/11/03 19:37:09;;;;;;;3.57;1.53;;;;;;;11.27;98.61;98326.66;5033993;28;20423;-70
2023/11/03 19:39:38;;;;;;;2.57;0.90;;;;;;;11.20;99.93;98321.91;5034231;28;20537;-69
2023/11/03 19:42:06;;;;;;;2.77;1.60;;;;;;;11.15;100.00;98316.78;5033415;28;21013;-70
2023/11/03 19:44:32;;;;;;;7.50;1.23;;;;;;;11.13;100.00;98318.28;5033711;28;20474;-70
2023/11/03 19:46:59;;;;;;;5.80;0.93;;;;;;;11.14;100.00;98309.78;5033707;28;20442;-70
2023/11/03 19:49:26;;;;;;;4.87;1.60;;;;;;;11.13;100.00;98310.94;5034049;28;20794;-70
2023/11/03 19:51:54;;;;;;;3.60;1.13;;;;;;;11.10;100.00;98312.44;5033794;28;20439;-70
2023/11/03 19:54:21;;;;;;;4.53;1.00;;;;;;;11.08;100.00;98314.72;5033771;28;20880;-70
2023/11/03 19:56:47;;;;;;;2.97;0.90;;;;;;;11.07;100.00;98310.47;5033388;28;20475;-70
2023/11/03 19:59:14;;;;;;;2.90;1.20;;;;;;;11.00;100.00;98314.97;5033694;28;20442;-70
2023/11/03 20:01:41;;;;;;;6.07;1.43;;;;;;;10.97;100.00;98316.44;5033630;28;20440;-70
2023/11/03 20:04:08;;;;;;;3.40;1.03;;;;;;;10.83;100.00;98311.56;5033501;28;20549;-70
2023/11/03 20:06:34;;;;;;;2.77;1.17;;;;;;;10.77;100.00;98321.13;5033675;28;20997;-70
2023/11/03 20:09:04;;;;;;;3.90;1.23;;;;;;;10.74;100.00;98316.41;5033417;28;20519;-70
2023/11/03 20:11:31;;;;;;;2.90;0.80;;;;;;;10.67;100.00;98316.28;5034196;28;20493;-70
2023/11/03 20:13:58;;;;;;;2.57;0.73;;;;;;;10.64;100.00;98324.34;5033159;28;20462;-70
2023/11/03 20:16:25;;;;;;;3.47;0.87;;;;;;;10.61;100.00;98323.91;5033445;28;20435;-70
2023/11/03 20:18:53;;;;;;;1.93;0.50;;;;;;;10.58;100.00;98321.94;5033474;28;20459;-70
2023/11/03 20:21:21;;;;;;;2.60;0.80;;;;;;;10.58;100.00;98321.94;5033920;28;20443;-70
2023/11/03 20:23:48;;;;;;;4.30;0.80;;;;;;;10.57;100.00;98317.63;5033374;28;20463;-71
2023/11/03 20:26:21;;;;;;;2.47;1.00;;;;;;;10.56;100.00;98321.47;5033730;28;20541;-70
2023/11/03 20:28:48;;;;;;;2.40;0.70;;;;;;;10.57;100.00;98319.56;5033231;28;20499;-70
2023/11/03 20:31:14;;;;;;;2.20;0.77;;;;;;;10.61;100.00;98323.91;5033173;28;20939;-70
2023/11/03 20:33:41;;;;;;;3.20;0.97;;;;;;;10.55;100.00;98329.97;5032962;28;20474;-70
2023/11/03 20:36:08;;;;;;;3.03;0.60;;;;;;;10.62;100.00;98324.69;5033696;28;20470;-71
2023/11/03 20:38:35;;;;;;;2.23;0.73;;;;;;;10.64;100.00;98325.13;5033687;28;20436;-70
2023/11/03 20:41:02;;;;;;;2.20;0.60;;;;;;;10.65;100.00;98317.78;5033232;28;20439;-70
2023/11/03 20:43:30;;;;;;;2.50;0.70;;;;;;;10.65;100.00;98318.56;5032865;28;20459;-70
2023/11/03 20:45:57;;;;;;;3.17;0.80;;;;;;;10.67;100.00;98315.50;5032938;28;20461;-70
2023/11/03 20:48:26;;;;;;;3.60;1.13;;;;;;;10.67;100.00;98320.91;5033137;28;20922;-70
2023/11/03 20:50:53;;;;;;;3.07;0.87;;;;;;;10.66;100.00;98320.13;5033318;28;20533;-70
2023/11/03 20:53:20;;;;;;;4.00;0.90;;;;;;;10.66;100.00;98322.06;5034107;28;20458;-70
2023/11/03 20:55:47;;;;;;;2.50;0.80;;;;;;;10.66;100.00;98325.53;5037235;28;20435;-70
2023/11/03 20:58:14;;;;;;;2.90;0.97;;;;;;;10.67;100.00;98337.97;5036807;28;20443;-70
2023/11/03 21:00:43;;;;;;;2.07;0.47;;;;;;;10.67;100.00;98329.84;5036844;28;20488;-70
2023/11/03 21:03:10;;;;;;;3.30;0.93;;;;;;;10.72;100.00;98336.88;5036685;28;20473;-70
2023/11/03 21:05:37;;;;;;;4.00;0.80;;;;;;;10.72;100.00;98329.53;5037029;28;20450;-70
2023/11/03 21:08:04;;;;;;;2.80;0.70;;;;;;;10.70;100.00;98334.50;5037054;28;20525;-70
2023/11/03 21:10:31;;;;;;;2.50;0.70;;;;;;;10.71;100.00;98332.59;5036527;28;20529;-70
2023/11/03 21:12:57;;;;;;;2.83;1.23;;;;;;;10.62;100.00;98338.22;5036253;28;20439;-70
2023/11/03 21:15:24;;;;;;;2.20;0.70;;;;;;;10.63;100.00;98334.41;5036559;28;20808;-70
2023/11/03 21:17:52;;;;;;;2.13;0.70;;;;;;;10.66;99.85;98338.28;5036436;28;20449;-70
2023/11/03 21:20:20;;;;;;;2.43;0.90;;;;;;;10.65;98.89;98339.44;5036465;28;20545;-70
2023/11/03 21:22:47;;;;;;;2.87;0.80;;;;;;;10.65;99.07;98340.22;5036072;28;20966;-70
2023/11/03 21:25:16;;;;;;;2.47;0.87;;;;;;;10.66;98.88;98341.78;5036031;28;20862;-70
2023/11/03 21:27:42;;;;;;;2.10;0.57;;;;;;;10.68;98.91;98344.16;5036188;28;20469;-70
2023/11/03 21:30:10;;;;;;;2.20;0.73;;;;;;;10.66;99.36;98341.78;5036575;28;20507;-70
2023/11/03 21:32:36;;;;;;;2.60;0.67;;;;;;;10.68;99.58;98342.22;5036579;28;20973;-70
2023/11/03 21:35:08;;;;;;;3.60;1.50;;;;;;;10.73;99.78;98341.94;5036187;28;20538;-70
2023/11/03 21:37:35;;;;;;;2.73;0.83;;;;;;;10.76;99.94;98341.22;5036654;28;20432;-70
2023/11/03 21:40:02;;;;;;;2.50;1.10;;;;;;;10.79;100.00;98340.50;5036151;28;20537;-70
2023/11/03 21:42:30;;;;;;;2.43;0.63;;;;;;;10.80;99.14;98341.28;5035950;28;20443;-70
2023/11/03 21:44:57;;;;;;;2.10;0.60;;;;;;;10.83;98.24;98338.63;5035899;28;20468;-70
2023/11/03 21:47:24;;;;;;;2.30;0.70;;;;;;;10.88;96.82;98337.56;5036122;28;20529;-71
2023/11/03 21:49:51;;;;;;;2.43;0.70;;;;;;;10.88;96.54;98342.97;5036329;28;20479;-70
2023/11/03 21:52:19;;;;;;;2.70;1.03;;;;;;;10.90;97.17;98345.34;5036283;28;20529;-68
2023/11/03 21:54:47;;;;;;;2.73;0.73;;;;;;;10.91;96.58;98349.63;5036072;28;20486;-69
2023/11/03 21:57:13;;;;;;;2.43;0.90;;;;;;;10.95;96.29;98347.75;5036129;28;20439;-69
2023/11/03 21:59:40;;;;;;;4.50;0.60;;;;;;;11.00;95.27;98355.59;5035855;28;20478;-68
2023/11/03 22:02:07;;;;;;;8.50;1.37;;;;;;;11.00;94.89;98361.00;5035967;28;20523;-70
2023/11/03 22:04:34;;;;;;;1.90;0.50;;;;;;;11.00;95.49;98367.22;5035288;28;20501;-69
2023/11/03 22:07:00;;;;;;;2.67;0.70;;;;;;;11.02;95.14;98366.84;5035558;28;20455;-69
2023/11/03 22:09:28;;;;;;;2.80;1.00;;;;;;;11.06;95.02;98370.41;5035479;28;20576;-69
2023/11/03 22:11:55;;;;;;;2.00;0.50;;;;;;;11.04;94.64;98378.91;5035270;28;20911;-68
2023/11/03 22:14:23;;;;;;;3.03;0.67;;;;;;;11.03;93.70;98377.34;5035468;28;20545;-68
2023/11/03 22:16:50;;;;;;;2.00;0.53;;;;;;;10.98;94.40;98372.22;5035355;28;20529;-68
2023/11/03 22:19:17;;;;;;;2.00;0.50;;;;;;;11.02;94.67;98375.78;5035611;28;20529;-68
2023/11/03 22:21:45;;;;;;;5.30;1.37;;;;;;;11.02;93.57;98383.09;5035357;28;20455;-68
2023/11/03 22:24:11;;;;;;;3.20;0.70;;;;;;;11.08;93.64;98382.47;5034938;28;20451;-68
2023/11/03 22:26:39;;;;;;;3.43;0.93;;;;;;;11.08;92.94;98387.88;5035129;28;20485;-69
2023/11/03 22:29:06;;;;;;;2.30;0.60;;;;;;;11.08;92.22;98390.59;5034831;28;20499;-69
2023/11/03 22:31:42;;;;;;;3.07;0.90;;;;;;;11.08;92.92;98381.69;5035383;28;20443;-70
2023/11/03 22:34:09;;;;;;;2.90;1.00;;;;;;;11.03;93.70;98387.41;5035263;28;20541;-69
2023/11/03 22:36:35;;;;;;;3.70;1.20;;;;;;;11.01;93.94;98384.25;5034904;28;20527;-69
2023/11/03 22:39:02;;;;;;;2.20;0.83;;;;;;;11.01;93.70;98389.66;5034787;28;20446;-70
2023/11/03 22:41:29;;;;;;;2.70;0.63;;;;;;;10.96;94.76;98398.88;5035057;28;20961;-69
2023/11/03 22:43:57;;;;;;;2.93;0.97;;;;;;;10.98;94.22;98393.88;5034523;28;20547;-70
2023/11/03 22:46:23;;;;;;;3.23;1.07;;;;;;;10.99;94.81;98395.44;5034936;28;20471;-69
2023/11/03 22:48:50;;;;;;;1.90;0.50;;;;;;;11.02;95.24;98393.94;5034712;28;20509;-69
2023/11/03 22:51:17;;;;;;;4.53;1.17;;;;;;;11.03;95.40;98392.81;5034830;28;20446;-69
2023/11/03 22:53:44;;;;;;;2.60;0.97;;;;;;;11.03;94.39;98395.53;5035045;28;20494;-69
2023/11/03 22:56:10;;;;;;;2.43;0.83;;;;;;;11.03;93.31;98400.94;5035011;28;20458;-70
2023/11/03 22:58:37;;;;;;;3.10;0.70;;;;;;;11.05;92.17;98406.78;5034674;28;20497;-69
2023/11/03 23:01:06;;;;;;;4.60;1.13;;;;;;;11.01;91.55;98403.97;5034714;28;20782;-70
2023/11/03 23:03:32;;;;;;;2.47;0.90;;;;;;;10.99;91.73;98406.28;5034596;28;20542;-69
2023/11/03 23:05:59;;;;;;;2.40;0.73;;;;;;;10.99;90.74;98403.56;5034321;28;20475;-70
2023/11/03 23:08:26;;;;;;;2.57;0.97;;;;;;;10.98;91.07;98406.63;5034495;28;20573;-70
2023/11/03 23:10:53;;;;;;;1.90;0.50;;;;;;;10.97;92.24;98405.84;5034288;28;20535;-70
2023/11/03 23:13:20;;;;;;;2.80;1.00;;;;;;;10.96;93.73;98409.69;5034654;28;20467;-69
2023/11/03 23:15:47;;;;;;;2.73;0.80;;;;;;;10.95;92.93;98421.69;5033611;28;20445;-69
2023/11/03 23:18:15;;;;;;;2.43;0.77;;;;;;;10.93;92.59;98421.22;5034075;28;20573;-69
2023/11/03 23:20:44;;;;;;;2.60;1.10;;;;;;;10.85;91.83;98419.53;5034574;28;20439;-69
2023/11/03 23:23:10;;;;;;;1.97;0.60;;;;;;;10.88;92.14;98418.03;5034231;28;20904;-69
2023/11/03 23:25:37;;;;;;;3.53;1.57;;;;;;;10.90;92.18;98429.31;5034146;28;20439;-69
2023/11/03 23:28:04;;;;;;;4.33;1.07;;;;;;;10.83;92.49;98425.31;5033989;28;20451;-69
2023/11/03 23:30:30;;;;;;;3.50;0.73;;;;;;;10.84;92.35;98434.22;5033993;28;20443;-69
2023/11/03 23:32:57;;;;;;;4.43;0.90;;;;;;;10.85;92.30;98433.09;5034059;28;20514;-69
2023/11/03 23:35:25;;;;;;;2.23;0.80;;;;;;;10.83;92.24;98438.84;5033765;28;20493;-69
2023/11/03 23:37:52;;;;;;;2.20;0.60;;;;;;;10.81;91.91;98437.66;5034072;28;20447;-69
2023/11/03 23:40:19;;;;;;;2.40;0.80;;;;;;;10.81;92.42;98435.72;5034264;28;20439;-69
2023/11/03 23:42:45;;;;;;;2.63;0.77;;;;;;;10.85;91.27;98438.50;5033762;28;20467;-69
2023/11/03 23:45:12;;;;;;;2.50;0.60;;;;;;;10.83;91.91;98444.25;5034149;28;20498;-69
2023/11/03 23:47:39;;;;;;;2.87;0.83;;;;;;;10.81;92.31;98438.44;5033874;28;20497;-68
2023/11/03 23:50:07;;;;;;;1.90;0.40;;;;;;;10.80;91.93;98438.75;5033347;28;20491;-69